sensor_id;sensor_type;location;lat;lon;timestamp;temperature;humidity
70475;DHT22;57944;48.722;9.316;2022-07-23T00:02:23;24.20;99.90
70475;DHT22;57944;48.722;9.316;2022-07-23T00:04:56;24.20;99.90
70475;DHT22;57944;48.722;9.316;2022-07-23T00:07:26;24.10;99.90
70475;DHT22;57944;48.722;9.316;2022-07-23T00:09:57;24.20;99.90
70475;DHT22;57944;48.722;9.316;2022-07-23T00:12:27;24.20;99.90
70475;DHT22;57944;48.722;9.316;2022-07-23T00:14:57;24.20;99.90
70475;DHT22;57944;48.722;9.316;2022-07-23T00:17:27;24.20;99.90
70475;DHT22;57944;48.722;9.316;2022-07-23T00:20:00;24.20;99.90
70475;DHT22;57944;48.722;9.316;2022-07-23T00:22:31;24.10;99.90
70475;DHT22;57944;48.722;9.316;2022-07-23T00:25:01;24.00;99.90
70475;DHT22;57944;48.722;9.316;2022-07-23T00:27:51;24.10;99.90
70475;DHT22;57944;48.722;9.316;2022-07-23T00:30:22;24.10;99.90
70475;DHT22;57944;48.722;9.316;2022-07-23T00:32:55;24.00;99.90
70475;DHT22;57944;48.722;9.316;2022-07-23T00:35:32;24.00;99.90
70475;DHT22;57944;48.722;9.316;2022-07-23T00:38:04;24.10;99.90
70475;DHT22;57944;48.722;9.316;2022-07-23T00:40:35;24.00;99.90
70475;DHT22;57944;48.722;9.316;2022-07-23T00:43:06;24.00;99.90
70475;DHT22;57944;48.722;9.316;2022-07-23T00:45:37;24.00;99.90
70475;DHT22;57944;48.722;9.316;2022-07-23T00:48:08;23.80;99.90
70475;DHT22;57944;48.722;9.316;2022-07-23T00:50:41;23.80;99.90
70475;DHT22;57944;48.722;9.316;2022-07-23T00:53:12;23.80;99.90
70475;DHT22;57944;48.722;9.316;2022-07-23T00:55:43;23.60;99.90
70475;DHT22;57944;48.722;9.316;2022-07-23T00:58:13;23.60;99.90
70475;DHT22;57944;48.722;9.316;2022-07-23T01:00:45;23.60;99.90
70475;DHT22;57944;48.722;9.316;2022-07-23T01:03:15;23.70;99.90
70475;DHT22;57944;48.722;9.316;2022-07-23T01:05:48;23.70;99.90
70475;DHT22;57944;48.722;9.316;2022-07-23T01:08:18;23.70;99.90
70475;DHT22;57944;48.722;9.316;2022-07-23T01:10:50;23.70;99.90
70475;DHT22;57944;48.722;9.316;2022-07-23T01:13:21;23.70;99.90
70475;DHT22;57944;48.722;9.316;2022-07-23T01:15:51;23.70;99.90
70475;DHT22;57944;48.722;9.316;2022-07-23T01:18:22;23.70;99.90
70475;DHT22;57944;48.722;9.316;2022-07-23T01:20:55;23.70;99.90
70475;DHT22;57944;48.722;9.316;2022-07-23T01:23:27;23.60;99.90
70475;DHT22;57944;48.722;9.316;2022-07-23T01:25:59;23.60;99.90
70475;DHT22;57944;48.722;9.316;2022-07-23T01:28:29;23.60;99.90
70475;DHT22;57944;48.722;9.316;2022-07-23T01:30:59;23.70;99.90
70475;DHT22;57944;48.722;9.316;2022-07-23T01:33:34;23.60;99.90
70475;DHT22;57944;48.722;9.316;2022-07-23T01:36:04;23.60;99.90
70475;DHT22;57944;48.722;9.316;2022-07-23T01:38:38;23.60;99.90
70475;DHT22;57944;48.722;9.316;2022-07-23T01:41:08;23.50;99.90
70475;DHT22;57944;48.722;9.316;2022-07-23T01:43:40;23.50;99.90
70475;DHT22;57944;48.722;9.316;2022-07-23T01:46:11;23.60;99.90
70475;DHT22;57944;48.722;9.316;2022-07-23T01:48:46;23.60;99.90
70475;DHT22;57944;48.722;9.316;2022-07-23T01:51:33;23.60;99.90
70475;DHT22;57944;48.722;9.316;2022-07-23T01:54:11;23.50;99.90
70475;DHT22;57944;48.722;9.316;2022-07-23T01:56:41;23.30;99.90
70475;DHT22;57944;48.722;9.316;2022-07-23T01:59:12;23.30;99.90
70475;DHT22;57944;48.722;9.316;2022-07-23T02:01:42;23.20;99.90
70475;DHT22;57944;48.722;9.316;2022-07-23T02:04:12;23.30;99.90
70475;DHT22;57944;48.722;9.316;2022-07-23T02:06:43;23.30;99.90
70475;DHT22;57944;48.722;9.316;2022-07-23T02:09:16;23.10;99.90
70475;DHT22;57944;48.722;9.316;2022-07-23T02:11:46;23.10;99.90
70475;DHT22;57944;48.722;9.316;2022-07-23T02:14:18;23.10;99.90
70475;DHT22;57944;48.722;9.316;2022-07-23T02:16:48;22.90;99.90
70475;DHT22;57944;48.722;9.316;2022-07-23T02:19:19;22.80;99.90
70475;DHT22;57944;48.722;9.316;2022-07-23T02:21:49;22.70;99.90
70475;DHT22;57944;48.722;9.316;2022-07-23T02:24:24;22.70;99.90
70475;DHT22;57944;48.722;9.316;2022-07-23T02:26:54;22.70;99.90
70475;DHT22;57944;48.722;9.316;2022-07-23T02:29:25;22.60;99.90
70475;DHT22;57944;48.722;9.316;2022-07-23T02:31:55;22.60;99.90
70475;DHT22;57944;48.722;9.316;2022-07-23T02:34:25;22.60;99.90
70475;DHT22;57944;48.722;9.316;2022-07-23T02:36:55;22.50;99.90
70475;DHT22;57944;48.722;9.316;2022-07-23T02:39:30;22.40;99.90
70475;DHT22;57944;48.722;9.316;2022-07-23T02:42:00;22.30;99.90
70475;DHT22;57944;48.722;9.316;2022-07-23T02:44:33;22.20;99.90
70475;DHT22;57944;48.722;9.316;2022-07-23T02:47:03;22.20;99.90
70475;DHT22;57944;48.722;9.316;2022-07-23T02:49:34;22.10;99.90
70475;DHT22;57944;48.722;9.316;2022-07-23T02:52:05;22.30;99.90
70475;DHT22;57944;48.722;9.316;2022-07-23T02:54:39;22.30;99.90
70475;DHT22;57944;48.722;9.316;2022-07-23T02:57:13;22.40;99.90
70475;DHT22;57944;48.722;9.316;2022-07-23T02:59:43;22.40;99.90
70475;DHT22;57944;48.722;9.316;2022-07-23T03:02:13;22.40;99.90
70475;DHT22;57944;48.722;9.316;2022-07-23T03:04:43;22.40;99.90
70475;DHT22;57944;48.722;9.316;2022-07-23T03:07:14;22.40;99.90
70475;DHT22;57944;48.722;9.316;2022-07-23T03:09:46;22.40;99.90
70475;DHT22;57944;48.722;9.316;2022-07-23T03:12:16;22.50;99.90
70475;DHT22;57944;48.722;9.316;2022-07-23T03:14:47;22.50;99.90
70475;DHT22;57944;48.722;9.316;2022-07-23T03:17:17;22.50;99.90
70475;DHT22;57944;48.722;9.316;2022-07-23T03:19:47;22.40;99.90
70475;DHT22;57944;48.722;9.316;2022-07-23T03:22:17;22.40;99.90
70475;DHT22;57944;48.722;9.316;2022-07-23T03:24:50;22.40;99.90
70475;DHT22;57944;48.722;9.316;2022-07-23T03:27:33;22.30;99.90
70475;DHT22;57944;48.722;9.316;2022-07-23T03:30:04;22.20;99.90
70475;DHT22;57944;48.722;9.316;2022-07-23T03:32:35;22.00;99.90
70475;DHT22;57944;48.722;9.316;2022-07-23T03:35:06;21.70;99.90
70475;DHT22;57944;48.722;9.316;2022-07-23T03:37:45;21.70;99.90
70475;DHT22;57944;48.722;9.316;2022-07-23T03:40:17;21.70;99.90
70475;DHT22;57944;48.722;9.316;2022-07-23T03:42:48;21.60;99.90
70475;DHT22;57944;48.722;9.316;2022-07-23T03:45:18;21.60;99.90
70475;DHT22;57944;48.722;9.316;2022-07-23T03:47:48;21.70;99.90
70475;DHT22;57944;48.722;9.316;2022-07-23T03:50:18;21.60;99.90
70475;DHT22;57944;48.722;9.316;2022-07-23T03:52:49;21.60;99.90
70475;DHT22;57944;48.722;9.316;2022-07-23T03:55:23;21.50;99.90
70475;DHT22;57944;48.722;9.316;2022-07-23T03:57:54;21.40;99.90
70475;DHT22;57944;48.722;9.316;2022-07-23T04:00:24;21.30;99.90
70475;DHT22;57944;48.722;9.316;2022-07-23T04:02:54;21.30;99.90
70475;DHT22;57944;48.722;9.316;2022-07-23T04:05:24;21.20;99.90
70475;DHT22;57944;48.722;9.316;2022-07-23T04:08:04;21.20;99.90
70475;DHT22;57944;48.722;9.316;2022-07-23T04:10:41;21.20;99.90
70475;DHT22;57944;48.722;9.316;2022-07-23T04:13:12;21.20;99.90
70475;DHT22;57944;48.722;9.316;2022-07-23T04:15:42;21.20;99.90
70475;DHT22;57944;48.722;9.316;2022-07-23T04:18:12;21.20;99.90
70475;DHT22;57944;48.722;9.316;2022-07-23T04:20:53;21.30;99.90
70475;DHT22;57944;48.722;9.316;2022-07-23T04:23:23;21.50;99.90
70475;DHT22;57944;48.722;9.316;2022-07-23T04:25:56;21.60;99.90
70475;DHT22;57944;48.722;9.316;2022-07-23T04:28:26;21.80;99.90
70475;DHT22;57944;48.722;9.316;2022-07-23T04:30:57;22.00;99.90
70475;DHT22;57944;48.722;9.316;2022-07-23T04:33:29;22.20;99.90
70475;DHT22;57944;48.722;9.316;2022-07-23T04:36:04;22.40;99.90
70475;DHT22;57944;48.722;9.316;2022-07-23T04:38:35;22.50;99.90
70475;DHT22;57944;48.722;9.316;2022-07-23T04:41:08;22.60;99.90
70475;DHT22;57944;48.722;9.316;2022-07-23T04:43:39;22.70;99.90
70475;DHT22;57944;48.722;9.316;2022-07-23T04:46:09;22.80;99.90
70475;DHT22;57944;48.722;9.316;2022-07-23T04:48:46;23.10;99.90
70475;DHT22;57944;48.722;9.316;2022-07-23T04:51:17;23.30;99.90
70475;DHT22;57944;48.722;9.316;2022-07-23T04:53:47;23.40;99.90
70475;DHT22;57944;48.722;9.316;2022-07-23T04:56:20;23.50;99.90
70475;DHT22;57944;48.722;9.316;2022-07-23T04:58:50;23.60;99.90
70475;DHT22;57944;48.722;9.316;2022-07-23T05:01:21;23.60;99.90
70475;DHT22;57944;48.722;9.316;2022-07-23T05:03:51;23.80;99.90
70475;DHT22;57944;48.722;9.316;2022-07-23T05:06:22;24.30;99.90
70475;DHT22;57944;48.722;9.316;2022-07-23T05:08:53;24.70;99.90
70475;DHT22;57944;48.722;9.316;2022-07-23T05:11:26;25.20;99.90
70475;DHT22;57944;48.722;9.316;2022-07-23T05:13:56;25.50;99.90
70475;DHT22;57944;48.722;9.316;2022-07-23T05:16:26;25.60;99.90
70475;DHT22;57944;48.722;9.316;2022-07-23T05:19:01;25.90;99.90
70475;DHT22;57944;48.722;9.316;2022-07-23T05:21:34;26.40;99.90
70475;DHT22;57944;48.722;9.316;2022-07-23T05:24:06;26.50;99.90
70475;DHT22;57944;48.722;9.316;2022-07-23T05:26:39;26.70;99.90
70475;DHT22;57944;48.722;9.316;2022-07-23T05:29:10;26.80;99.90
70475;DHT22;57944;48.722;9.316;2022-07-23T05:31:40;26.60;99.90
70475;DHT22;57944;48.722;9.316;2022-07-23T05:34:10;26.30;99.90
70475;DHT22;57944;48.722;9.316;2022-07-23T05:36:44;25.90;99.90
70475;DHT22;57944;48.722;9.316;2022-07-23T05:39:16;25.40;99.90
70475;DHT22;57944;48.722;9.316;2022-07-23T05:41:49;25.40;99.90
70475;DHT22;57944;48.722;9.316;2022-07-23T05:44:23;25.40;99.90
70475;DHT22;57944;48.722;9.316;2022-07-23T05:47:00;25.60;99.90
70475;DHT22;57944;48.722;9.316;2022-07-23T05:49:31;25.80;99.90
70475;DHT22;57944;48.722;9.316;2022-07-23T05:52:19;25.90;99.90
70475;DHT22;57944;48.722;9.316;2022-07-23T05:55:11;25.90;99.90
70475;DHT22;57944;48.722;9.316;2022-07-23T05:57:44;25.70;99.90
70475;DHT22;57944;48.722;9.316;2022-07-23T06:00:15;25.60;99.90
70475;DHT22;57944;48.722;9.316;2022-07-23T06:02:46;25.50;99.90
70475;DHT22;57944;48.722;9.316;2022-07-23T06:05:22;25.50;99.90
70475;DHT22;57944;48.722;9.316;2022-07-23T06:07:55;25.40;99.90
70475;DHT22;57944;48.722;9.316;2022-07-23T06:10:26;25.30;99.90
70475;DHT22;57944;48.722;9.316;2022-07-23T06:12:59;25.20;99.90
70475;DHT22;57944;48.722;9.316;2022-07-23T06:15:30;25.20;99.90
70475;DHT22;57944;48.722;9.316;2022-07-23T06:18:00;25.30;99.90
70475;DHT22;57944;48.722;9.316;2022-07-23T06:20:31;25.40;99.90
70475;DHT22;57944;48.722;9.316;2022-07-23T06:23:01;25.60;99.90
70475;DHT22;57944;48.722;9.316;2022-07-23T06:25:31;25.80;99.90
70475;DHT22;57944;48.722;9.316;2022-07-23T06:28:04;26.10;99.90
70475;DHT22;57944;48.722;9.316;2022-07-23T06:30:34;26.10;99.90
70475;DHT22;57944;48.722;9.316;2022-07-23T06:33:04;26.50;99.90
70475;DHT22;57944;48.722;9.316;2022-07-23T06:35:35;27.80;99.90
70475;DHT22;57944;48.722;9.316;2022-07-23T06:38:07;29.20;99.90
70475;DHT22;57944;48.722;9.316;2022-07-23T06:40:37;30.50;99.90
70475;DHT22;57944;48.722;9.316;2022-07-23T06:43:09;31.40;97.60
70475;DHT22;57944;48.722;9.316;2022-07-23T06:45:43;31.50;96.50
70475;DHT22;57944;48.722;9.316;2022-07-23T06:48:13;32.30;94.90
70475;DHT22;57944;48.722;9.316;2022-07-23T06:50:44;31.80;94.10
70475;DHT22;57944;48.722;9.316;2022-07-23T06:53:14;31.50;94.20
70475;DHT22;57944;48.722;9.316;2022-07-23T06:55:44;30.70;95.00
70475;DHT22;57944;48.722;9.316;2022-07-23T06:58:17;30.60;95.00
70475;DHT22;57944;48.722;9.316;2022-07-23T07:00:48;30.40;95.70
70475;DHT22;57944;48.722;9.316;2022-07-23T07:03:19;30.40;95.70
70475;DHT22;57944;48.722;9.316;2022-07-23T07:05:49;30.80;95.10
70475;DHT22;57944;48.722;9.316;2022-07-23T07:08:20;31.40;94.20
70475;DHT22;57944;48.722;9.316;2022-07-23T07:10:50;30.40;94.70
70475;DHT22;57944;48.722;9.316;2022-07-23T07:13:23;30.10;95.00
70475;DHT22;57944;48.722;9.316;2022-07-23T07:15:53;30.20;95.40
70475;DHT22;57944;48.722;9.316;2022-07-23T07:18:23;30.00;95.40
70475;DHT22;57944;48.722;9.316;2022-07-23T07:20:53;29.40;96.00
70475;DHT22;57944;48.722;9.316;2022-07-23T07:23:24;28.60;94.80
70475;DHT22;57944;48.722;9.316;2022-07-23T07:25:54;28.00;94.90
70475;DHT22;57944;48.722;9.316;2022-07-23T07:28:26;27.30;94.80
70475;DHT22;57944;48.722;9.316;2022-07-23T07:30:57;26.50;95.60
70475;DHT22;57944;48.722;9.316;2022-07-23T07:33:27;26.00;96.70
70475;DHT22;57944;48.722;9.316;2022-07-23T07:35:57;25.70;98.10
70475;DHT22;57944;48.722;9.316;2022-07-23T07:38:28;25.60;98.10
70475;DHT22;57944;48.722;9.316;2022-07-23T07:40:58;25.50;98.30
70475;DHT22;57944;48.722;9.316;2022-07-23T07:43:31;26.50;97.70
70475;DHT22;57944;48.722;9.316;2022-07-23T07:46:01;27.70;96.00
70475;DHT22;57944;48.722;9.316;2022-07-23T07:48:33;27.30;95.60
70475;DHT22;57944;48.722;9.316;2022-07-23T07:51:04;27.40;95.80
70475;DHT22;57944;48.722;9.316;2022-07-23T07:53:35;28.60;94.60
70475;DHT22;57944;48.722;9.316;2022-07-23T07:56:06;30.50;92.10
70475;DHT22;57944;48.722;9.316;2022-07-23T07:58:41;31.30;90.50
70475;DHT22;57944;48.722;9.316;2022-07-23T08:01:11;31.30;89.50
70475;DHT22;57944;48.722;9.316;2022-07-23T08:03:41;32.30;86.70
70475;DHT22;57944;48.722;9.316;2022-07-23T08:06:11;33.40;85.20
70475;DHT22;57944;48.722;9.316;2022-07-23T08:08:41;34.00;79.90
70475;DHT22;57944;48.722;9.316;2022-07-23T08:11:13;33.30;78.00
70475;DHT22;57944;48.722;9.316;2022-07-23T08:13:45;31.60;79.50
70475;DHT22;57944;48.722;9.316;2022-07-23T08:16:16;29.90;85.70
70475;DHT22;57944;48.722;9.316;2022-07-23T08:18:46;29.00;88.70
70475;DHT22;57944;48.722;9.316;2022-07-23T08:21:16;28.90;91.10
70475;DHT22;57944;48.722;9.316;2022-07-23T08:23:46;29.40;91.10
70475;DHT22;57944;48.722;9.316;2022-07-23T08:26:17;30.50;90.80
70475;DHT22;57944;48.722;9.316;2022-07-23T08:28:49;31.20;89.20
70475;DHT22;57944;48.722;9.316;2022-07-23T08:31:19;31.50;87.80
70475;DHT22;57944;48.722;9.316;2022-07-23T08:33:50;31.80;87.50
70475;DHT22;57944;48.722;9.316;2022-07-23T08:36:21;32.00;86.30
70475;DHT22;57944;48.722;9.316;2022-07-23T08:38:51;30.80;86.50
70475;DHT22;57944;48.722;9.316;2022-07-23T08:41:21;30.70;89.90
70475;DHT22;57944;48.722;9.316;2022-07-23T08:43:53;31.80;86.30
70475;DHT22;57944;48.722;9.316;2022-07-23T08:46:25;31.70;85.70
70475;DHT22;57944;48.722;9.316;2022-07-23T08:48:56;32.50;85.30
70475;DHT22;57944;48.722;9.316;2022-07-23T08:51:28;34.60;81.50
70475;DHT22;57944;48.722;9.316;2022-07-23T08:53:59;34.90;78.10
70475;DHT22;57944;48.722;9.316;2022-07-23T08:56:30;35.20;77.60
70475;DHT22;57944;48.722;9.316;2022-07-23T08:59:03;37.00;75.60
70475;DHT22;57944;48.722;9.316;2022-07-23T09:01:33;36.60;72.70
70475;DHT22;57944;48.722;9.316;2022-07-23T09:04:04;35.10;73.60
70475;DHT22;57944;48.722;9.316;2022-07-23T09:06:34;35.10;74.50
70475;DHT22;57944;48.722;9.316;2022-07-23T09:09:16;35.10;74.50
70475;DHT22;57944;48.722;9.316;2022-07-23T09:12:02;35.50;72.70
70475;DHT22;57944;48.722;9.316;2022-07-23T09:14:40;37.40;70.50
70475;DHT22;57944;48.722;9.316;2022-07-23T09:17:13;36.90;69.00
70475;DHT22;57944;48.722;9.316;2022-07-23T09:19:45;37.10;69.00
70475;DHT22;57944;48.722;9.316;2022-07-23T09:22:23;37.60;69.50
70475;DHT22;57944;48.722;9.316;2022-07-23T09:25:05;37.00;67.40
70475;DHT22;57944;48.722;9.316;2022-07-23T09:27:52;36.40;67.80
70475;DHT22;57944;48.722;9.316;2022-07-23T09:30:28;37.10;66.50
70475;DHT22;57944;48.722;9.316;2022-07-23T09:33:05;37.50;65.70
70475;DHT22;57944;48.722;9.316;2022-07-23T09:35:50;38.40;62.80
70475;DHT22;57944;48.722;9.316;2022-07-23T09:38:23;38.30;62.60
70475;DHT22;57944;48.722;9.316;2022-07-23T09:41:09;37.50;61.90
70475;DHT22;57944;48.722;9.316;2022-07-23T09:43:41;37.60;61.30
70475;DHT22;57944;48.722;9.316;2022-07-23T09:46:21;37.80;62.10
70475;DHT22;57944;48.722;9.316;2022-07-23T09:48:53;38.50;60.60
70475;DHT22;57944;48.722;9.316;2022-07-23T09:51:26;39.20;59.10
70475;DHT22;57944;48.722;9.316;2022-07-23T09:54:00;39.20;57.30
70475;DHT22;57944;48.722;9.316;2022-07-23T09:56:31;38.30;57.80
70475;DHT22;57944;48.722;9.316;2022-07-23T09:59:03;39.40;58.40
70475;DHT22;57944;48.722;9.316;2022-07-23T10:01:38;39.90;56.30
70475;DHT22;57944;48.722;9.316;2022-07-23T10:04:10;40.70;56.10
70475;DHT22;57944;48.722;9.316;2022-07-23T10:07:08;40.70;54.20
70475;DHT22;57944;48.722;9.316;2022-07-23T10:09:58;40.00;54.40
70475;DHT22;57944;48.722;9.316;2022-07-23T10:13:01;39.40;55.50
70475;DHT22;57944;48.722;9.316;2022-07-23T10:15:48;39.40;55.50
70475;DHT22;57944;48.722;9.316;2022-07-23T10:18:22;40.90;54.10
70475;DHT22;57944;48.722;9.316;2022-07-23T10:20:53;42.10;52.80
70475;DHT22;57944;48.722;9.316;2022-07-23T10:23:29;43.40;50.30
70475;DHT22;57944;48.722;9.316;2022-07-23T10:26:10;42.80;49.10
70475;DHT22;57944;48.722;9.316;2022-07-23T10:29:00;42.20;49.30
70475;DHT22;57944;48.722;9.316;2022-07-23T10:31:51;42.30;49.50
70475;DHT22;57944;48.722;9.316;2022-07-23T10:34:39;43.10;48.10
70475;DHT22;57944;48.722;9.316;2022-07-23T10:37:17;44.40;46.90
70475;DHT22;57944;48.722;9.316;2022-07-23T10:40:11;43.30;46.60
70475;DHT22;57944;48.722;9.316;2022-07-23T10:42:45;41.60;47.40
70475;DHT22;57944;48.722;9.316;2022-07-23T10:45:29;37.30;52.70
70475;DHT22;57944;48.722;9.316;2022-07-23T10:48:13;37.10;54.30
70475;DHT22;57944;48.722;9.316;2022-07-23T10:51:09;38.00;53.70
70475;DHT22;57944;48.722;9.316;2022-07-23T10:53:59;38.10;53.30
70475;DHT22;57944;48.722;9.316;2022-07-23T10:56:49;38.60;52.60
70475;DHT22;57944;48.722;9.316;2022-07-23T11:00:08;39.50;51.80
70475;DHT22;57944;48.722;9.316;2022-07-23T11:02:57;39.60;51.00
70475;DHT22;57944;48.722;9.316;2022-07-23T11:05:40;40.30;50.60
70475;DHT22;57944;48.722;9.316;2022-07-23T11:08:20;40.70;49.10
70475;DHT22;57944;48.722;9.316;2022-07-23T11:10:53;40.00;49.20
70475;DHT22;57944;48.722;9.316;2022-07-23T11:13:30;39.90;51.50
70475;DHT22;57944;48.722;9.316;2022-07-23T11:16:19;40.40;49.80
70475;DHT22;57944;48.722;9.316;2022-07-23T11:19:14;40.00;50.30
70475;DHT22;57944;48.722;9.316;2022-07-23T11:21:50;40.30;49.70
70475;DHT22;57944;48.722;9.316;2022-07-23T11:24:25;40.90;49.00
70475;DHT22;57944;48.722;9.316;2022-07-23T11:27:03;41.20;48.50
70475;DHT22;57944;48.722;9.316;2022-07-23T11:29:45;40.20;48.80
70475;DHT22;57944;48.722;9.316;2022-07-23T11:32:29;41.00;48.70
70475;DHT22;57944;48.722;9.316;2022-07-23T11:35:21;40.50;48.80
70475;DHT22;57944;48.722;9.316;2022-07-23T11:38:03;39.30;49.80
70475;DHT22;57944;48.722;9.316;2022-07-23T11:40:37;37.80;50.40
70475;DHT22;57944;48.722;9.316;2022-07-23T11:43:09;36.70;52.10
70475;DHT22;57944;48.722;9.316;2022-07-23T11:45:42;36.60;52.70
70475;DHT22;57944;48.722;9.316;2022-07-23T11:48:19;36.80;52.80
70475;DHT22;57944;48.722;9.316;2022-07-23T11:50:52;37.50;52.20
70475;DHT22;57944;48.722;9.316;2022-07-23T11:53:24;39.20;50.70
70475;DHT22;57944;48.722;9.316;2022-07-23T11:56:06;40.60;48.80
70475;DHT22;57944;48.722;9.316;2022-07-23T11:58:39;40.70;48.40
70475;DHT22;57944;48.722;9.316;2022-07-23T12:01:26;41.00;47.90
70475;DHT22;57944;48.722;9.316;2022-07-23T12:03:57;40.80;47.70
70475;DHT22;57944;48.722;9.316;2022-07-23T12:06:28;41.00;48.00
70475;DHT22;57944;48.722;9.316;2022-07-23T12:09:04;39.70;48.10
70475;DHT22;57944;48.722;9.316;2022-07-23T12:11:37;38.40;50.40
70475;DHT22;57944;48.722;9.316;2022-07-23T12:14:09;38.20;51.10
70475;DHT22;57944;48.722;9.316;2022-07-23T12:16:40;38.30;51.50
70475;DHT22;57944;48.722;9.316;2022-07-23T12:19:10;38.00;52.60
70475;DHT22;57944;48.722;9.316;2022-07-23T12:21:41;37.70;51.50
70475;DHT22;57944;48.722;9.316;2022-07-23T12:24:12;37.90;52.30
70475;DHT22;57944;48.722;9.316;2022-07-23T12:27:08;37.50;52.10
70475;DHT22;57944;48.722;9.316;2022-07-23T12:29:39;37.30;52.60
70475;DHT22;57944;48.722;9.316;2022-07-23T12:32:18;37.10;51.90
70475;DHT22;57944;48.722;9.316;2022-07-23T12:34:51;36.10;53.70
70475;DHT22;57944;48.722;9.316;2022-07-23T12:37:34;37.00;52.70
70475;DHT22;57944;48.722;9.316;2022-07-23T12:40:21;37.60;52.30
70475;DHT22;57944;48.722;9.316;2022-07-23T12:42:58;37.70;51.70
70475;DHT22;57944;48.722;9.316;2022-07-23T12:45:43;37.40;52.10
70475;DHT22;57944;48.722;9.316;2022-07-23T12:48:23;37.40;52.10
70475;DHT22;57944;48.722;9.316;2022-07-23T12:50:56;37.60;52.30
70475;DHT22;57944;48.722;9.316;2022-07-23T12:53:29;37.90;52.00
70475;DHT22;57944;48.722;9.316;2022-07-23T12:56:04;37.80;51.30
70475;DHT22;57944;48.722;9.316;2022-07-23T12:58:50;37.60;52.40
70475;DHT22;57944;48.722;9.316;2022-07-23T13:01:25;38.10;51.80
70475;DHT22;57944;48.722;9.316;2022-07-23T13:04:02;38.10;51.80
70475;DHT22;57944;48.722;9.316;2022-07-23T13:06:44;38.50;51.40
70475;DHT22;57944;48.722;9.316;2022-07-23T13:09:20;37.60;52.00
70475;DHT22;57944;48.722;9.316;2022-07-23T13:11:53;38.10;51.60
70475;DHT22;57944;48.722;9.316;2022-07-23T13:14:28;38.20;52.20
70475;DHT22;57944;48.722;9.316;2022-07-23T13:16:59;38.60;50.90
70475;DHT22;57944;48.722;9.316;2022-07-23T13:19:32;38.60;51.20
70475;DHT22;57944;48.722;9.316;2022-07-23T13:22:02;38.80;50.60
70475;DHT22;57944;48.722;9.316;2022-07-23T13:24:36;39.10;50.40
70475;DHT22;57944;48.722;9.316;2022-07-23T13:27:06;39.60;50.00
70475;DHT22;57944;48.722;9.316;2022-07-23T13:29:41;39.60;49.50
70475;DHT22;57944;48.722;9.316;2022-07-23T13:32:12;38.10;50.50
70475;DHT22;57944;48.722;9.316;2022-07-23T13:34:43;37.60;51.20
70475;DHT22;57944;48.722;9.316;2022-07-23T13:37:16;37.20;52.10
70475;DHT22;57944;48.722;9.316;2022-07-23T13:39:46;36.40;52.40
70475;DHT22;57944;48.722;9.316;2022-07-23T13:42:17;36.70;53.40
70475;DHT22;57944;48.722;9.316;2022-07-23T13:44:52;37.00;52.70
70475;DHT22;57944;48.722;9.316;2022-07-23T13:47:23;36.10;53.70
70475;DHT22;57944;48.722;9.316;2022-07-23T13:49:53;36.00;53.60
70475;DHT22;57944;48.722;9.316;2022-07-23T13:52:24;34.30;54.60
70475;DHT22;57944;48.722;9.316;2022-07-23T13:54:54;33.20;57.50
70475;DHT22;57944;48.722;9.316;2022-07-23T13:57:24;31.90;59.50
70475;DHT22;57944;48.722;9.316;2022-07-23T13:59:57;31.70;59.70
70475;DHT22;57944;48.722;9.316;2022-07-23T14:02:30;32.40;61.00
70475;DHT22;57944;48.722;9.316;2022-07-23T14:05:00;33.80;59.00
70475;DHT22;57944;48.722;9.316;2022-07-23T14:07:30;35.60;56.80
70475;DHT22;57944;48.722;9.316;2022-07-23T14:10:01;35.60;55.50
70475;DHT22;57944;48.722;9.316;2022-07-23T14:12:34;35.80;56.50
70475;DHT22;57944;48.722;9.316;2022-07-23T14:15:08;36.50;54.40
70475;DHT22;57944;48.722;9.316;2022-07-23T14:17:42;37.20;53.90
70475;DHT22;57944;48.722;9.316;2022-07-23T14:20:15;37.50;51.60
70475;DHT22;57944;48.722;9.316;2022-07-23T14:22:46;36.30;53.00
70475;DHT22;57944;48.722;9.316;2022-07-23T14:25:16;35.60;53.90
70475;DHT22;57944;48.722;9.316;2022-07-23T14:27:47;35.00;54.70
70475;DHT22;57944;48.722;9.316;2022-07-23T14:30:20;34.80;55.40
70475;DHT22;57944;48.722;9.316;2022-07-23T14:32:59;33.80;56.80
70475;DHT22;57944;48.722;9.316;2022-07-23T14:35:29;34.30;56.90
70475;DHT22;57944;48.722;9.316;2022-07-23T14:38:00;35.20;56.30
70475;DHT22;57944;48.722;9.316;2022-07-23T14:40:30;35.10;55.80
70475;DHT22;57944;48.722;9.316;2022-07-23T14:43:00;34.80;56.90
70475;DHT22;57944;48.722;9.316;2022-07-23T14:45:39;34.50;58.70
70475;DHT22;57944;48.722;9.316;2022-07-23T14:48:15;34.10;58.20
70475;DHT22;57944;48.722;9.316;2022-07-23T14:50:47;34.10;58.50
70475;DHT22;57944;48.722;9.316;2022-07-23T14:53:17;33.80;58.00
70475;DHT22;57944;48.722;9.316;2022-07-23T14:55:51;33.80;59.20
70475;DHT22;57944;48.722;9.316;2022-07-23T14:58:22;34.80;56.60
70475;DHT22;57944;48.722;9.316;2022-07-23T15:00:55;35.30;56.20
70475;DHT22;57944;48.722;9.316;2022-07-23T15:03:26;35.80;54.70
70475;DHT22;57944;48.722;9.316;2022-07-23T15:06:08;36.70;53.80
70475;DHT22;57944;48.722;9.316;2022-07-23T15:08:38;38.20;52.50
70475;DHT22;57944;48.722;9.316;2022-07-23T15:11:09;37.90;51.80
70475;DHT22;57944;48.722;9.316;2022-07-23T15:13:41;37.00;52.50
70475;DHT22;57944;48.722;9.316;2022-07-23T15:16:15;36.10;54.00
70475;DHT22;57944;48.722;9.316;2022-07-23T15:18:50;35.80;54.60
70475;DHT22;57944;48.722;9.316;2022-07-23T15:21:21;35.90;54.40
70475;DHT22;57944;48.722;9.316;2022-07-23T15:23:51;35.30;54.20
70475;DHT22;57944;48.722;9.316;2022-07-23T15:26:22;34.60;54.90
70475;DHT22;57944;48.722;9.316;2022-07-23T15:28:52;34.10;55.60
70475;DHT22;57944;48.722;9.316;2022-07-23T15:31:25;33.30;56.80
70475;DHT22;57944;48.722;9.316;2022-07-23T15:33:55;32.60;57.40
70475;DHT22;57944;48.722;9.316;2022-07-23T15:36:26;32.30;58.10
70475;DHT22;57944;48.722;9.316;2022-07-23T15:38:56;32.00;58.60
70475;DHT22;57944;48.722;9.316;2022-07-23T15:41:26;31.80;59.20
70475;DHT22;57944;48.722;9.316;2022-07-23T15:43:56;31.90;59.40
70475;DHT22;57944;48.722;9.316;2022-07-23T15:46:50;32.20;59.90
70475;DHT22;57944;48.722;9.316;2022-07-23T15:49:20;32.40;59.10
70475;DHT22;57944;48.722;9.316;2022-07-23T15:51:50;32.30;58.60
70475;DHT22;57944;48.722;9.316;2022-07-23T15:54:21;33.00;58.50
70475;DHT22;57944;48.722;9.316;2022-07-23T15:56:52;33.60;57.30
70475;DHT22;57944;48.722;9.316;2022-07-23T15:59:23;34.40;57.20
70475;DHT22;57944;48.722;9.316;2022-07-23T16:01:58;34.60;55.60
70475;DHT22;57944;48.722;9.316;2022-07-23T16:04:29;34.50;55.40
70475;DHT22;57944;48.722;9.316;2022-07-23T16:07:00;34.70;55.20
70475;DHT22;57944;48.722;9.316;2022-07-23T16:09:31;34.80;54.80
70475;DHT22;57944;48.722;9.316;2022-07-23T16:12:01;34.40;53.90